Prosper, Texas
Current Conditions -  °F | °C
As of 6:53 PM on Wednesday 22 Oct 2014 (Local Time) from KTKI Reporting Station
Clear Clear  
Wind Chill: 73°   Ceiling: Unl
Heat Index: 73°   Visibility: 10mi
Dew Point: 57°   Wind: 3mph
Humidity: 57%   Direction: 110°ESE
Pressure: 30.09"   Gusts: NA
Location:  33.24°N, 96.8°W
Report Text: KTKI 222353Z 11003KT 10SM CLR 23/14 A3009 RMK AO2 SLP191 T02280139 10267 20228 53003
Loading
Personal Weather Stations






























Interactive Weather Map
Tropical Storm Tracking
New forecast layout! Learn more

10-Day Weather Forecast

Advertisements
Track Severe Weather on mobile